sensor_id;sensor_type;location;lat;lon;timestamp;P1;durP1;ratioP1;P2;durP2;ratioP2
65086;SDS011;52094;51.234;-2.310;2022-09-14T00:03:22;6.90;;;4.15;;
65086;SDS011;52094;51.234;-2.310;2022-09-14T00:07:04;6.88;;;3.80;;
65086;SDS011;52094;51.234;-2.310;2022-09-14T00:10:46;6.53;;;4.07;;
65086;SDS011;52094;51.234;-2.310;2022-09-14T00:14:28;6.22;;;4.03;;
65086;SDS011;52094;51.234;-2.310;2022-09-14T00:18:10;6.53;;;3.88;;
65086;SDS011;52094;51.234;-2.310;2022-09-14T00:21:56;7.68;;;4.40;;
65086;SDS011;52094;51.234;-2.310;2022-09-14T00:25:39;8.05;;;4.25;;
65086;SDS011;52094;51.234;-2.310;2022-09-14T00:29:21;7.45;;;4.38;;
65086;SDS011;52094;51.234;-2.310;2022-09-14T00:33:04;7.03;;;5.07;;
65086;SDS011;52094;51.234;-2.310;2022-09-14T00:36:47;7.28;;;4.47;;
65086;SDS011;52094;51.234;-2.310;2022-09-14T00:40:30;7.78;;;5.20;;
65086;SDS011;52094;51.234;-2.310;2022-09-14T00:47:54;7.68;;;4.85;;
65086;SDS011;52094;51.234;-2.310;2022-09-14T00:51:38;8.20;;;5.20;;
65086;SDS011;52094;51.234;-2.310;2022-09-14T00:55:26;6.88;;;4.60;;
65086;SDS011;52094;51.234;-2.310;2022-09-14T00:59:10;6.60;;;4.40;;
65086;SDS011;52094;51.234;-2.310;2022-09-14T01:02:57;8.05;;;4.70;;
65086;SDS011;52094;51.234;-2.310;2022-09-14T01:06:42;8.23;;;4.80;;
65086;SDS011;52094;51.234;-2.310;2022-09-14T01:14:25;8.60;;;4.93;;
65086;SDS011;52094;51.234;-2.310;2022-09-14T01:18:46;7.63;;;4.95;;
65086;SDS011;52094;51.234;-2.310;2022-09-14T01:22:34;7.32;;;4.70;;
65086;SDS011;52094;51.234;-2.310;2022-09-14T01:30:11;7.88;;;5.00;;
65086;SDS011;52094;51.234;-2.310;2022-09-14T01:34:01;9.93;;;5.20;;
65086;SDS011;52094;51.234;-2.310;2022-09-14T01:41:36;7.22;;;5.43;;
65086;SDS011;52094;51.234;-2.310;2022-09-14T01:45:22;10.88;;;5.10;;
65086;SDS011;52094;51.234;-2.310;2022-09-14T01:49:13;7.72;;;5.45;;
65086;SDS011;52094;51.234;-2.310;2022-09-14T01:53:11;8.10;;;5.25;;
65086;SDS011;52094;51.234;-2.310;2022-09-14T01:56:59;9.57;;;5.70;;
65086;SDS011;52094;51.234;-2.310;2022-09-14T02:00:48;8.60;;;5.75;;
65086;SDS011;52094;51.234;-2.310;2022-09-14T02:08:51;7.32;;;4.93;;
65086;SDS011;52094;51.234;-2.310;2022-09-14T02:12:34;9.15;;;5.65;;
65086;SDS011;52094;51.234;-2.310;2022-09-14T02:16:17;8.43;;;5.75;;
65086;SDS011;52094;51.234;-2.310;2022-09-14T02:20:00;7.22;;;5.15;;
65086;SDS011;52094;51.234;-2.310;2022-09-14T02:23:45;7.22;;;5.10;;
65086;SDS011;52094;51.234;-2.310;2022-09-14T02:27:29;8.35;;;5.50;;
65086;SDS011;52094;51.234;-2.310;2022-09-14T02:35:08;9.75;;;6.10;;
65086;SDS011;52094;51.234;-2.310;2022-09-14T02:39:02;9.43;;;6.35;;
65086;SDS011;52094;51.234;-2.310;2022-09-14T02:42:59;9.30;;;5.78;;
65086;SDS011;52094;51.234;-2.310;2022-09-14T02:47:03;7.82;;;5.45;;
65086;SDS011;52094;51.234;-2.310;2022-09-14T02:55:05;8.52;;;5.00;;
65086;SDS011;52094;51.234;-2.310;2022-09-14T02:58:50;11.00;;;6.97;;
65086;SDS011;52094;51.234;-2.310;2022-09-14T03:02:32;11.00;;;6.78;;
65086;SDS011;52094;51.234;-2.310;2022-09-14T03:06:14;11.63;;;7.25;;
65086;SDS011;52094;51.234;-2.310;2022-09-14T03:09:57;14.20;;;8.40;;
65086;SDS011;52094;51.234;-2.310;2022-09-14T03:13:39;11.98;;;7.05;;
65086;SDS011;52094;51.234;-2.310;2022-09-14T03:17:21;10.77;;;7.70;;
65086;SDS011;52094;51.234;-2.310;2022-09-14T03:24:45;10.48;;;7.60;;
65086;SDS011;52094;51.234;-2.310;2022-09-14T03:33:05;11.02;;;7.30;;
65086;SDS011;52094;51.234;-2.310;2022-09-14T03:36:47;12.18;;;7.20;;
65086;SDS011;52094;51.234;-2.310;2022-09-14T03:48:05;11.73;;;7.53;;
65086;SDS011;52094;51.234;-2.310;2022-09-14T03:51:49;12.48;;;7.05;;
65086;SDS011;52094;51.234;-2.310;2022-09-14T03:55:40;10.63;;;7.05;;
65086;SDS011;52094;51.234;-2.310;2022-09-14T03:59:37;11.93;;;6.95;;
65086;SDS011;52094;51.234;-2.310;2022-09-14T04:03:24;13.13;;;6.95;;
65086;SDS011;52094;51.234;-2.310;2022-09-14T04:07:06;10.18;;;7.00;;
65086;SDS011;52094;51.234;-2.310;2022-09-14T04:11:15;11.20;;;7.05;;
65086;SDS011;52094;51.234;-2.310;2022-09-14T04:15:18;10.70;;;6.80;;
65086;SDS011;52094;51.234;-2.310;2022-09-14T04:19:01;9.70;;;6.90;;
65086;SDS011;52094;51.234;-2.310;2022-09-14T04:22:48;12.13;;;7.72;;
65086;SDS011;52094;51.234;-2.310;2022-09-14T04:27:04;10.40;;;6.85;;
65086;SDS011;52094;51.234;-2.310;2022-09-14T04:30:57;11.40;;;6.90;;
65086;SDS011;52094;51.234;-2.310;2022-09-14T04:34:45;9.57;;;5.93;;
65086;SDS011;52094;51.234;-2.310;2022-09-14T04:38:33;9.90;;;6.43;;
65086;SDS011;52094;51.234;-2.310;2022-09-14T04:42:26;10.10;;;6.22;;
65086;SDS011;52094;51.234;-2.310;2022-09-14T04:46:25;10.48;;;6.43;;
65086;SDS011;52094;51.234;-2.310;2022-09-14T04:54:02;10.15;;;5.40;;
65086;SDS011;52094;51.234;-2.310;2022-09-14T04:58:05;10.40;;;5.93;;
65086;SDS011;52094;51.234;-2.310;2022-09-14T05:02:01;10.35;;;5.38;;
65086;SDS011;52094;51.234;-2.310;2022-09-14T05:05:43;9.80;;;5.57;;
65086;SDS011;52094;51.234;-2.310;2022-09-14T05:09:25;10.88;;;5.55;;
65086;SDS011;52094;51.234;-2.310;2022-09-14T05:13:07;10.38;;;5.43;;
65086;SDS011;52094;51.234;-2.310;2022-09-14T05:16:49;9.02;;;6.00;;
65086;SDS011;52094;51.234;-2.310;2022-09-14T05:20:33;10.75;;;5.75;;
65086;SDS011;52094;51.234;-2.310;2022-09-14T05:24:16;14.98;;;5.70;;
65086;SDS011;52094;51.234;-2.310;2022-09-14T05:27:58;9.13;;;5.13;;
65086;SDS011;52094;51.234;-2.310;2022-09-14T05:31:40;8.13;;;5.43;;
65086;SDS011;52094;51.234;-2.310;2022-09-14T05:35:23;8.10;;;4.90;;
65086;SDS011;52094;51.234;-2.310;2022-09-14T05:39:06;6.78;;;4.63;;
65086;SDS011;52094;51.234;-2.310;2022-09-14T05:42:48;8.63;;;5.05;;
65086;SDS011;52094;51.234;-2.310;2022-09-14T05:46:30;7.18;;;4.68;;
65086;SDS011;52094;51.234;-2.310;2022-09-14T05:50:13;8.13;;;5.10;;
65086;SDS011;52094;51.234;-2.310;2022-09-14T05:53:56;7.25;;;4.75;;
65086;SDS011;52094;51.234;-2.310;2022-09-14T05:57:38;9.13;;;4.88;;
65086;SDS011;52094;51.234;-2.310;2022-09-14T06:01:24;7.47;;;4.57;;
65086;SDS011;52094;51.234;-2.310;2022-09-14T06:05:09;6.35;;;4.25;;
65086;SDS011;52094;51.234;-2.310;2022-09-14T06:08:52;7.70;;;4.95;;
65086;SDS011;52094;51.234;-2.310;2022-09-14T06:12:35;9.27;;;4.82;;
65086;SDS011;52094;51.234;-2.310;2022-09-14T06:16:20;8.75;;;4.93;;
65086;SDS011;52094;51.234;-2.310;2022-09-14T06:20:09;7.47;;;4.80;;
65086;SDS011;52094;51.234;-2.310;2022-09-14T06:23:51;8.23;;;4.88;;
65086;SDS011;52094;51.234;-2.310;2022-09-14T06:27:33;9.65;;;5.60;;
65086;SDS011;52094;51.234;-2.310;2022-09-14T06:31:15;9.27;;;5.55;;
65086;SDS011;52094;51.234;-2.310;2022-09-14T06:34:59;12.07;;;5.78;;
65086;SDS011;52094;51.234;-2.310;2022-09-14T06:38:42;8.98;;;5.53;;
65086;SDS011;52094;51.234;-2.310;2022-09-14T06:42:25;10.38;;;5.80;;
65086;SDS011;52094;51.234;-2.310;2022-09-14T06:49:55;8.00;;;5.15;;
65086;SDS011;52094;51.234;-2.310;2022-09-14T06:53:38;8.95;;;5.47;;
65086;SDS011;52094;51.234;-2.310;2022-09-14T06:57:20;8.82;;;5.55;;
65086;SDS011;52094;51.234;-2.310;2022-09-14T07:01:03;9.18;;;5.75;;
65086;SDS011;52094;51.234;-2.310;2022-09-14T07:04:46;11.77;;;6.38;;
65086;SDS011;52094;51.234;-2.310;2022-09-14T07:08:28;10.48;;;6.25;;
65086;SDS011;52094;51.234;-2.310;2022-09-14T07:12:10;9.52;;;6.25;;
65086;SDS011;52094;51.234;-2.310;2022-09-14T07:15:53;10.82;;;6.43;;
65086;SDS011;52094;51.234;-2.310;2022-09-14T07:23:57;10.75;;;6.18;;
65086;SDS011;52094;51.234;-2.310;2022-09-14T07:27:39;11.30;;;6.90;;
65086;SDS011;52094;51.234;-2.310;2022-09-14T07:31:25;10.93;;;6.60;;
65086;SDS011;52094;51.234;-2.310;2022-09-14T07:35:15;8.75;;;5.82;;
65086;SDS011;52094;51.234;-2.310;2022-09-14T07:38:57;10.05;;;7.32;;
65086;SDS011;52094;51.234;-2.310;2022-09-14T07:42:39;11.35;;;7.22;;
65086;SDS011;52094;51.234;-2.310;2022-09-14T07:46:22;11.80;;;7.15;;
65086;SDS011;52094;51.234;-2.310;2022-09-14T07:50:04;10.13;;;7.63;;
65086;SDS011;52094;51.234;-2.310;2022-09-14T07:53:47;9.10;;;6.80;;
65086;SDS011;52094;51.234;-2.310;2022-09-14T07:57:29;10.00;;;6.97;;
65086;SDS011;52094;51.234;-2.310;2022-09-14T08:01:30;11.32;;;7.32;;
65086;SDS011;52094;51.234;-2.310;2022-09-14T08:05:13;9.98;;;6.90;;
65086;SDS011;52094;51.234;-2.310;2022-09-14T08:08:55;11.95;;;7.78;;
65086;SDS011;52094;51.234;-2.310;2022-09-14T08:12:38;10.75;;;8.00;;
65086;SDS011;52094;51.234;-2.310;2022-09-14T08:16:20;10.00;;;7.88;;
65086;SDS011;52094;51.234;-2.310;2022-09-14T08:20:03;10.88;;;7.90;;
65086;SDS011;52094;51.234;-2.310;2022-09-14T08:23:45;10.50;;;7.82;;
65086;SDS011;52094;51.234;-2.310;2022-09-14T08:27:27;11.75;;;8.98;;
65086;SDS011;52094;51.234;-2.310;2022-09-14T08:31:10;9.68;;;8.05;;
65086;SDS011;52094;51.234;-2.310;2022-09-14T08:34:55;11.32;;;8.07;;
65086;SDS011;52094;51.234;-2.310;2022-09-14T08:38:38;11.95;;;8.65;;
65086;SDS011;52094;51.234;-2.310;2022-09-14T08:42:20;10.18;;;7.90;;
65086;SDS011;52094;51.234;-2.310;2022-09-14T08:46:10;10.82;;;8.73;;
65086;SDS011;52094;51.234;-2.310;2022-09-14T08:50:10;10.52;;;8.20;;
65086;SDS011;52094;51.234;-2.310;2022-09-14T08:53:55;10.33;;;7.43;;
65086;SDS011;52094;51.234;-2.310;2022-09-14T08:57:41;11.43;;;7.97;;
65086;SDS011;52094;51.234;-2.310;2022-09-14T09:09:29;11.00;;;8.30;;
65086;SDS011;52094;51.234;-2.310;2022-09-14T09:13:14;10.63;;;8.15;;
65086;SDS011;52094;51.234;-2.310;2022-09-14T09:17:02;11.40;;;8.48;;
65086;SDS011;52094;51.234;-2.310;2022-09-14T09:20:51;10.20;;;8.02;;
65086;SDS011;52094;51.234;-2.310;2022-09-14T09:24:39;10.70;;;8.40;;
65086;SDS011;52094;51.234;-2.310;2022-09-14T09:28:28;11.02;;;8.82;;
65086;SDS011;52094;51.234;-2.310;2022-09-14T09:32:16;12.10;;;8.88;;
65086;SDS011;52094;51.234;-2.310;2022-09-14T09:39:43;10.55;;;7.50;;
65086;SDS011;52094;51.234;-2.310;2022-09-14T09:43:26;10.77;;;7.53;;
65086;SDS011;52094;51.234;-2.310;2022-09-14T09:47:32;9.77;;;7.95;;
65086;SDS011;52094;51.234;-2.310;2022-09-14T09:51:26;10.63;;;7.82;;
65086;SDS011;52094;51.234;-2.310;2022-09-14T09:55:16;13.48;;;7.80;;
65086;SDS011;52094;51.234;-2.310;2022-09-14T09:59:09;10.95;;;7.55;;
65086;SDS011;52094;51.234;-2.310;2022-09-14T10:03:19;10.75;;;7.82;;
65086;SDS011;52094;51.234;-2.310;2022-09-14T10:07:20;9.68;;;7.15;;
65086;SDS011;52094;51.234;-2.310;2022-09-14T10:11:03;9.77;;;7.13;;
65086;SDS011;52094;51.234;-2.310;2022-09-14T10:14:46;10.77;;;7.70;;
65086;SDS011;52094;51.234;-2.310;2022-09-14T10:18:28;10.68;;;7.13;;
65086;SDS011;52094;51.234;-2.310;2022-09-14T10:22:18;9.07;;;6.20;;
65086;SDS011;52094;51.234;-2.310;2022-09-14T10:29:52;8.52;;;6.55;;
65086;SDS011;52094;51.234;-2.310;2022-09-14T10:33:36;9.00;;;6.38;;
65086;SDS011;52094;51.234;-2.310;2022-09-14T10:37:38;9.90;;;7.00;;
65086;SDS011;52094;51.234;-2.310;2022-09-14T10:45:23;7.20;;;5.43;;
65086;SDS011;52094;51.234;-2.310;2022-09-14T10:53:40;7.82;;;5.38;;
65086;SDS011;52094;51.234;-2.310;2022-09-14T10:57:38;8.43;;;5.38;;
65086;SDS011;52094;51.234;-2.310;2022-09-14T11:05:41;7.97;;;4.95;;
65086;SDS011;52094;51.234;-2.310;2022-09-14T11:09:36;8.30;;;4.57;;
65086;SDS011;52094;51.234;-2.310;2022-09-14T11:13:31;6.50;;;4.18;;
65086;SDS011;52094;51.234;-2.310;2022-09-14T11:24:56;6.40;;;4.20;;
65086;SDS011;52094;51.234;-2.310;2022-09-14T11:28:55;6.72;;;4.65;;
65086;SDS011;52094;51.234;-2.310;2022-09-14T11:32:51;6.78;;;4.57;;
65086;SDS011;52094;51.234;-2.310;2022-09-14T11:36:40;6.65;;;4.03;;
65086;SDS011;52094;51.234;-2.310;2022-09-14T11:40:33;7.80;;;4.50;;
65086;SDS011;52094;51.234;-2.310;2022-09-14T11:44:20;5.68;;;3.85;;
65086;SDS011;52094;51.234;-2.310;2022-09-14T11:52:19;8.02;;;4.80;;
65086;SDS011;52094;51.234;-2.310;2022-09-14T11:56:03;6.35;;;3.65;;
65086;SDS011;52094;51.234;-2.310;2022-09-14T12:04:15;5.65;;;3.03;;
65086;SDS011;52094;51.234;-2.310;2022-09-14T12:11:28;4.75;;;2.67;;
65086;SDS011;52094;51.234;-2.310;2022-09-14T12:19:14;5.78;;;2.80;;
65086;SDS011;52094;51.234;-2.310;2022-09-14T12:27:12;5.97;;;3.25;;
65086;SDS011;52094;51.234;-2.310;2022-09-14T12:34:45;5.40;;;2.30;;
65086;SDS011;52094;51.234;-2.310;2022-09-14T12:42:33;7.07;;;3.50;;
65086;SDS011;52094;51.234;-2.310;2022-09-14T12:50:04;5.30;;;3.42;;
65086;SDS011;52094;51.234;-2.310;2022-09-14T12:54:19;6.55;;;3.50;;
65086;SDS011;52094;51.234;-2.310;2022-09-14T13:02:43;5.57;;;3.50;;
65086;SDS011;52094;51.234;-2.310;2022-09-14T13:06:34;5.82;;;3.40;;
65086;SDS011;52094;51.234;-2.310;2022-09-14T13:10:31;6.03;;;3.40;;
65086;SDS011;52094;51.234;-2.310;2022-09-14T13:14:19;6.68;;;4.00;;
65086;SDS011;52094;51.234;-2.310;2022-09-14T13:18:05;7.78;;;4.18;;
65086;SDS011;52094;51.234;-2.310;2022-09-14T13:22:19;6.25;;;3.83;;
65086;SDS011;52094;51.234;-2.310;2022-09-14T13:26:09;6.88;;;3.72;;
65086;SDS011;52094;51.234;-2.310;2022-09-14T13:30:01;5.72;;;3.05;;
65086;SDS011;52094;51.234;-2.310;2022-09-14T13:33:48;6.28;;;3.88;;
65086;SDS011;52094;51.234;-2.310;2022-09-14T13:37:31;7.45;;;4.30;;
65086;SDS011;52094;51.234;-2.310;2022-09-14T13:41:17;6.60;;;3.50;;
65086;SDS011;52094;51.234;-2.310;2022-09-14T13:45:03;4.57;;;3.00;;
65086;SDS011;52094;51.234;-2.310;2022-09-14T13:48:45;5.18;;;2.53;;
65086;SDS011;52094;51.234;-2.310;2022-09-14T13:52:29;6.82;;;3.10;;
65086;SDS011;52094;51.234;-2.310;2022-09-14T13:56:35;5.68;;;2.75;;
65086;SDS011;52094;51.234;-2.310;2022-09-14T14:00:18;4.57;;;2.50;;
65086;SDS011;52094;51.234;-2.310;2022-09-14T14:04:01;7.75;;;2.95;;
65086;SDS011;52094;51.234;-2.310;2022-09-14T14:07:43;8.15;;;2.80;;
65086;SDS011;52094;51.234;-2.310;2022-09-14T14:11:27;7.80;;;3.13;;
65086;SDS011;52094;51.234;-2.310;2022-09-14T14:18:57;4.15;;;2.35;;
65086;SDS011;52094;51.234;-2.310;2022-09-14T14:22:39;6.65;;;2.63;;
65086;SDS011;52094;51.234;-2.310;2022-09-14T14:26:35;4.40;;;2.35;;
65086;SDS011;52094;51.234;-2.310;2022-09-14T14:30:18;5.70;;;2.60;;
65086;SDS011;52094;51.234;-2.310;2022-09-14T14:34:09;5.82;;;2.90;;
65086;SDS011;52094;51.234;-2.310;2022-09-14T14:37:58;6.20;;;2.70;;
65086;SDS011;52094;51.234;-2.310;2022-09-14T14:41:40;5.65;;;2.60;;
65086;SDS011;52094;51.234;-2.310;2022-09-14T14:45:23;6.40;;;3.03;;
65086;SDS011;52094;51.234;-2.310;2022-09-14T14:49:09;6.30;;;3.15;;
65086;SDS011;52094;51.234;-2.310;2022-09-14T14:52:53;5.25;;;3.10;;
65086;SDS011;52094;51.234;-2.310;2022-09-14T14:56:35;4.45;;;2.97;;
65086;SDS011;52094;51.234;-2.310;2022-09-14T15:00:21;7.97;;;3.53;;
65086;SDS011;52094;51.234;-2.310;2022-09-14T15:04:04;6.82;;;4.32;;
65086;SDS011;52094;51.234;-2.310;2022-09-14T15:07:46;6.22;;;3.58;;
65086;SDS011;52094;51.234;-2.310;2022-09-14T15:11:30;6.00;;;3.70;;
65086;SDS011;52094;51.234;-2.310;2022-09-14T15:15:13;7.65;;;3.58;;
65086;SDS011;52094;51.234;-2.310;2022-09-14T15:18:57;6.07;;;3.78;;
65086;SDS011;52094;51.234;-2.310;2022-09-14T15:22:39;6.15;;;2.97;;
65086;SDS011;52094;51.234;-2.310;2022-09-14T15:26:22;7.18;;;4.00;;
65086;SDS011;52094;51.234;-2.310;2022-09-14T15:30:05;5.78;;;2.63;;
65086;SDS011;52094;51.234;-2.310;2022-09-14T15:33:48;5.35;;;2.60;;
65086;SDS011;52094;51.234;-2.310;2022-09-14T15:37:31;5.60;;;2.50;;
65086;SDS011;52094;51.234;-2.310;2022-09-14T15:41:13;5.30;;;2.30;;
65086;SDS011;52094;51.234;-2.310;2022-09-14T15:44:55;5.13;;;2.30;;
65086;SDS011;52094;51.234;-2.310;2022-09-14T15:48:37;4.28;;;2.35;;
65086;SDS011;52094;51.234;-2.310;2022-09-14T15:52:20;4.53;;;1.75;;
65086;SDS011;52094;51.234;-2.310;2022-09-14T15:56:09;3.95;;;1.70;;
65086;SDS011;52094;51.234;-2.310;2022-09-14T15:59:52;3.03;;;1.55;;
65086;SDS011;52094;51.234;-2.310;2022-09-14T16:03:35;5.25;;;1.77;;
65086;SDS011;52094;51.234;-2.310;2022-09-14T16:07:17;4.28;;;1.95;;
65086;SDS011;52094;51.234;-2.310;2022-09-14T16:10:59;3.88;;;2.10;;
65086;SDS011;52094;51.234;-2.310;2022-09-14T16:14:42;4.53;;;2.10;;
65086;SDS011;52094;51.234;-2.310;2022-09-14T16:18:24;5.43;;;2.00;;
65086;SDS011;52094;51.234;-2.310;2022-09-14T16:22:06;5.28;;;1.88;;
65086;SDS011;52094;51.234;-2.310;2022-09-14T16:25:48;5.57;;;1.95;;
65086;SDS011;52094;51.234;-2.310;2022-09-14T16:29:30;4.10;;;2.05;;
65086;SDS011;52094;51.234;-2.310;2022-09-14T16:33:12;4.85;;;1.85;;
65086;SDS011;52094;51.234;-2.310;2022-09-14T16:36:56;5.13;;;2.13;;
65086;SDS011;52094;51.234;-2.310;2022-09-14T16:40:39;4.38;;;1.83;;
65086;SDS011;52094;51.234;-2.310;2022-09-14T16:44:23;4.00;;;2.25;;
65086;SDS011;52094;51.234;-2.310;2022-09-14T16:48:06;5.25;;;2.70;;
65086;SDS011;52094;51.234;-2.310;2022-09-14T16:51:48;4.57;;;2.10;;
65086;SDS011;52094;51.234;-2.310;2022-09-14T16:55:30;5.05;;;2.13;;
65086;SDS011;52094;51.234;-2.310;2022-09-14T16:59:12;3.28;;;1.80;;
65086;SDS011;52094;51.234;-2.310;2022-09-14T17:02:56;5.38;;;2.10;;
65086;SDS011;52094;51.234;-2.310;2022-09-14T17:06:38;3.78;;;1.67;;
65086;SDS011;52094;51.234;-2.310;2022-09-14T17:10:22;4.40;;;1.98;;
65086;SDS011;52094;51.234;-2.310;2022-09-14T17:14:06;5.47;;;2.03;;
65086;SDS011;52094;51.234;-2.310;2022-09-14T17:17:49;4.05;;;2.20;;
65086;SDS011;52094;51.234;-2.310;2022-09-14T17:21:32;3.38;;;1.58;;
65086;SDS011;52094;51.234;-2.310;2022-09-14T17:25:17;3.08;;;1.52;;
65086;SDS011;52094;51.234;-2.310;2022-09-14T17:29:00;4.07;;;1.83;;
65086;SDS011;52094;51.234;-2.310;2022-09-14T17:32:43;3.35;;;1.75;;
65086;SDS011;52094;51.234;-2.310;2022-09-14T17:36:25;4.70;;;1.90;;
65086;SDS011;52094;51.234;-2.310;2022-09-14T17:40:08;4.53;;;1.80;;
65086;SDS011;52094;51.234;-2.310;2022-09-14T17:43:52;3.70;;;1.50;;
65086;SDS011;52094;51.234;-2.310;2022-09-14T17:47:35;3.42;;;1.85;;
65086;SDS011;52094;51.234;-2.310;2022-09-14T17:51:19;5.60;;;2.00;;
65086;SDS011;52094;51.234;-2.310;2022-09-14T17:55:03;4.07;;;1.70;;
65086;SDS011;52094;51.234;-2.310;2022-09-14T17:58:46;4.13;;;1.92;;
65086;SDS011;52094;51.234;-2.310;2022-09-14T18:02:36;3.65;;;1.90;;
65086;SDS011;52094;51.234;-2.310;2022-09-14T18:06:19;6.05;;;1.90;;
65086;SDS011;52094;51.234;-2.310;2022-09-14T18:10:04;8.82;;;2.22;;
65086;SDS011;52094;51.234;-2.310;2022-09-14T18:13:47;4.68;;;2.30;;
65086;SDS011;52094;51.234;-2.310;2022-09-14T18:17:30;4.88;;;2.10;;
65086;SDS011;52094;51.234;-2.310;2022-09-14T18:21:12;5.40;;;2.20;;
65086;SDS011;52094;51.234;-2.310;2022-09-14T18:24:55;6.25;;;2.53;;
65086;SDS011;52094;51.234;-2.310;2022-09-14T18:28:37;4.60;;;2.45;;
65086;SDS011;52094;51.234;-2.310;2022-09-14T18:32:19;4.40;;;2.20;;
65086;SDS011;52094;51.234;-2.310;2022-09-14T18:36:02;4.22;;;2.33;;
65086;SDS011;52094;51.234;-2.310;2022-09-14T18:39:45;5.97;;;2.40;;
65086;SDS011;52094;51.234;-2.310;2022-09-14T18:43:27;5.45;;;2.60;;
65086;SDS011;52094;51.234;-2.310;2022-09-14T18:47:10;6.18;;;2.42;;
65086;SDS011;52094;51.234;-2.310;2022-09-14T18:50:52;8.30;;;3.65;;
65086;SDS011;52094;51.234;-2.310;2022-09-14T18:54:34;4.65;;;2.80;;
65086;SDS011;52094;51.234;-2.310;2022-09-14T18:58:17;4.80;;;2.95;;
65086;SDS011;52094;51.234;-2.310;2022-09-14T19:01:59;7.35;;;4.07;;
65086;SDS011;52094;51.234;-2.310;2022-09-14T19:05:41;6.63;;;3.05;;
65086;SDS011;52094;51.234;-2.310;2022-09-14T19:09:23;7.40;;;3.97;;
65086;SDS011;52094;51.234;-2.310;2022-09-14T19:13:05;6.50;;;4.03;;
65086;SDS011;52094;51.234;-2.310;2022-09-14T19:16:48;6.28;;;3.65;;
65086;SDS011;52094;51.234;-2.310;2022-09-14T19:20:37;5.82;;;3.95;;
65086;SDS011;52094;51.234;-2.310;2022-09-14T19:24:39;8.38;;;4.65;;
65086;SDS011;52094;51.234;-2.310;2022-09-14T19:28:21;8.57;;;4.55;;
65086;SDS011;52094;51.234;-2.310;2022-09-14T19:32:03;6.38;;;4.72;;
65086;SDS011;52094;51.234;-2.310;2022-09-14T19:35:46;7.28;;;4.20;;
65086;SDS011;52094;51.234;-2.310;2022-09-14T19:39:28;8.60;;;4.97;;
65086;SDS011;52094;51.234;-2.310;2022-09-14T19:43:10;8.77;;;4.65;;
65086;SDS011;52094;51.234;-2.310;2022-09-14T19:46:52;5.47;;;4.00;;
65086;SDS011;52094;51.234;-2.310;2022-09-14T19:50:35;7.82;;;5.50;;
65086;SDS011;52094;51.234;-2.310;2022-09-14T19:54:17;9.52;;;6.07;;
65086;SDS011;52094;51.234;-2.310;2022-09-14T19:58:00;7.10;;;4.85;;
65086;SDS011;52094;51.234;-2.310;2022-09-14T20:01:42;7.13;;;3.28;;
65086;SDS011;52094;51.234;-2.310;2022-09-14T20:05:24;8.25;;;2.83;;
65086;SDS011;52094;51.234;-2.310;2022-09-14T20:09:11;10.60;;;2.70;;
65086;SDS011;52094;51.234;-2.310;2022-09-14T20:12:55;4.47;;;2.13;;
65086;SDS011;52094;51.234;-2.310;2022-09-14T20:16:38;3.75;;;1.70;;
65086;SDS011;52094;51.234;-2.310;2022-09-14T20:20:25;2.80;;;1.60;;
65086;SDS011;52094;51.234;-2.310;2022-09-14T20:24:09;4.68;;;1.85;;
65086;SDS011;52094;51.234;-2.310;2022-09-14T20:31:39;3.85;;;1.50;;
65086;SDS011;52094;51.234;-2.310;2022-09-14T20:35:21;4.28;;;1.75;;
65086;SDS011;52094;51.234;-2.310;2022-09-14T20:39:03;4.00;;;1.77;;
65086;SDS011;52094;51.234;-2.310;2022-09-14T20:42:45;4.28;;;2.03;;
65086;SDS011;52094;51.234;-2.310;2022-09-14T20:46:28;4.07;;;1.55;;
65086;SDS011;52094;51.234;-2.310;2022-09-14T20:50:15;2.95;;;1.67;;
65086;SDS011;52094;51.234;-2.310;2022-09-14T20:53:57;2.20;;;1.10;;
65086;SDS011;52094;51.234;-2.310;2022-09-14T20:57:39;2.30;;;1.40;;
65086;SDS011;52094;51.234;-2.310;2022-09-14T21:01:21;2.40;;;1.40;;
65086;SDS011;52094;51.234;-2.310;2022-09-14T21:05:05;4.00;;;1.90;;
65086;SDS011;52094;51.234;-2.310;2022-09-14T21:08:48;2.33;;;1.27;;
65086;SDS011;52094;51.234;-2.310;2022-09-14T21:12:30;2.33;;;1.42;;
65086;SDS011;52094;51.234;-2.310;2022-09-14T21:16:16;4.38;;;2.00;;
65086;SDS011;52094;51.234;-2.310;2022-09-14T21:20:00;3.42;;;1.42;;
65086;SDS011;52094;51.234;-2.310;2022-09-14T21:23:42;2.28;;;1.40;;
65086;SDS011;52094;51.234;-2.310;2022-09-14T21:27:24;2.20;;;1.20;;
65086;SDS011;52094;51.234;-2.310;2022-09-14T21:31:11;3.17;;;1.23;;
65086;SDS011;52094;51.234;-2.310;2022-09-14T21:34:55;4.40;;;1.70;;
65086;SDS011;52094;51.234;-2.310;2022-09-14T21:38:37;2.85;;;1.30;;
65086;SDS011;52094;51.234;-2.310;2022-09-14T21:42:20;1.55;;;1.00;;
65086;SDS011;52094;51.234;-2.310;2022-09-14T21:46:02;2.38;;;1.25;;
65086;SDS011;52094;51.234;-2.310;2022-09-14T21:49:44;2.80;;;1.27;;
65086;SDS011;52094;51.234;-2.310;2022-09-14T21:53:26;2.50;;;1.33;;
65086;SDS011;52094;51.234;-2.310;2022-09-14T21:57:08;4.18;;;1.90;;
65086;SDS011;52094;51.234;-2.310;2022-09-14T22:00:57;4.60;;;1.70;;
65086;SDS011;52094;51.234;-2.310;2022-09-14T22:04:40;2.42;;;1.30;;
65086;SDS011;52094;51.234;-2.310;2022-09-14T22:08:23;2.67;;;1.38;;
65086;SDS011;52094;51.234;-2.310;2022-09-14T22:12:05;3.38;;;1.58;;
65086;SDS011;52094;51.234;-2.310;2022-09-14T22:15:47;2.85;;;1.35;;
65086;SDS011;52094;51.234;-2.310;2022-09-14T22:19:30;2.25;;;1.23;;
65086;SDS011;52094;51.234;-2.310;2022-09-14T22:23:12;2.97;;;1.40;;
65086;SDS011;52094;51.234;-2.310;2022-09-14T22:26:54;2.83;;;1.30;;
65086;SDS011;52094;51.234;-2.310;2022-09-14T22:30:42;2.45;;;1.00;;
65086;SDS011;52094;51.234;-2.310;2022-09-14T22:34:30;1.80;;;1.13;;
65086;SDS011;52094;51.234;-2.310;2022-09-14T22:38:12;2.10;;;1.10;;
65086;SDS011;52094;51.234;-2.310;2022-09-14T22:41:54;2.55;;;1.42;;
65086;SDS011;52094;51.234;-2.310;2022-09-14T22:45:37;3.92;;;1.20;;
65086;SDS011;52094;51.234;-2.310;2022-09-14T22:49:19;2.42;;;1.30;;
65086;SDS011;52094;51.234;-2.310;2022-09-14T22:53:01;3.38;;;1.40;;
65086;SDS011;52094;51.234;-2.310;2022-09-14T22:56:43;1.88;;;1.00;;
65086;SDS011;52094;51.234;-2.310;2022-09-14T23:00:25;1.83;;;1.10;;
65086;SDS011;52094;51.234;-2.310;2022-09-14T23:04:08;2.35;;;1.00;;
65086;SDS011;52094;51.234;-2.310;2022-09-14T23:07:53;2.40;;;1.30;;
65086;SDS011;52094;51.234;-2.310;2022-09-14T23:11:36;2.60;;;1.25;;
65086;SDS011;52094;51.234;-2.310;2022-09-14T23:15:18;1.70;;;1.00;;
65086;SDS011;52094;51.234;-2.310;2022-09-14T23:19:01;4.55;;;1.20;;
65086;SDS011;52094;51.234;-2.310;2022-09-14T23:22:44;3.00;;;1.00;;
65086;SDS011;52094;51.234;-2.310;2022-09-14T23:26:26;1.88;;;1.23;;
65086;SDS011;52094;51.234;-2.310;2022-09-14T23:30:09;3.63;;;1.50;;
65086;SDS011;52094;51.234;-2.310;2022-09-14T23:33:52;1.70;;;0.98;;
65086;SDS011;52094;51.234;-2.310;2022-09-14T23:37:36;2.25;;;1.20;;
65086;SDS011;52094;51.234;-2.310;2022-09-14T23:41:19;2.95;;;1.35;;
65086;SDS011;52094;51.234;-2.310;2022-09-14T23:45:02;2.75;;;1.25;;
65086;SDS011;52094;51.234;-2.310;2022-09-14T23:48:45;3.17;;;1.20;;
65086;SDS011;52094;51.234;-2.310;2022-09-14T23:52:27;2.42;;;1.23;;
65086;SDS011;52094;51.234;-2.310;2022-09-14T23:56:09;1.90;;;1.02;;
65086;SDS011;52094;51.234;-2.310;2022-09-14T23:59:52;1.83;;;1.00;;
